Time;durP1;ratioP1;P1;durP2;ratioP2;P2;SDS_P1;SDS_P2;PMS_P1;PMS_P2;Temp;Humidity;BMP_temperature;BMP_pressure;BME280_temperature;BME280_humidity;BME280_pressure;Samples;Min_cycle;Max_cycle;Signal;HPM_P1;HPM_P2
2022/09/10 00:00:06;;;;;;;61.40;12.80;;;;;;;21.51;55.28;99811.28;5035040;28;20025;-49
2022/09/10 00:02:33;;;;;;;40.70;10.32;;;;;;;21.30;56.15;99810.88;5034840;28;20384;-52
2022/09/10 00:05:01;;;;;;;41.72;10.27;;;;;;;21.30;56.80;99805.44;5042498;28;20017;-52
2022/09/10 00:07:27;;;;;;;43.10;11.77;;;;;;;21.10;56.90;99816.69;5054549;28;20043;-51
2022/09/10 00:09:54;;;;;;;42.80;10.30;;;;;;;21.14;57.20;99817.69;5036152;28;20033;-51
2022/09/10 00:12:20;;;;;;;38.08;9.40;;;;;;;21.15;56.71;99813.84;5034417;28;20324;-51
2022/09/10 00:14:46;;;;;;;43.58;10.43;;;;;;;21.00;56.88;99803.28;5034638;28;20164;-48
2022/09/10 00:17:13;;;;;;;44.90;9.93;;;;;;;21.16;57.01;99806.53;5034937;28;20021;-48
2022/09/10 00:19:39;;;;;;;47.00;10.05;;;;;;;20.99;57.01;99810.63;5035006;28;20045;-48
2022/09/10 00:22:05;;;;;;;37.03;10.80;;;;;;;20.74;57.37;99809.16;5034703;28;20116;-51
2022/09/10 00:24:33;;;;;;;46.78;11.23;;;;;;;20.70;58.03;99813.56;5034947;28;20452;-51
2022/09/10 00:26:59;;;;;;;37.45;10.35;;;;;;;20.81;58.06;99806.84;5034545;28;20029;-49
2022/09/10 00:29:25;;;;;;;41.00;10.25;;;;;;;20.50;58.60;99803.06;5034391;28;20076;-49
2022/09/10 00:31:52;;;;;;;34.65;9.52;;;;;;;20.43;59.33;99806.13;5034188;28;20021;-49
2022/09/10 00:34:18;;;;;;;41.45;9.88;;;;;;;20.69;58.50;99813.88;5034419;28;20499;-52
2022/09/10 00:36:45;;;;;;;41.30;9.88;;;;;;;20.41;59.50;99805.59;5034148;28;20124;-50
2022/09/10 00:39:17;;;;;;;47.97;10.60;;;;;;;20.37;59.82;99811.91;5034221;28;20105;-51
2022/09/10 00:41:45;;;;;;;42.70;9.35;;;;;;;20.48;59.90;99813.41;5033873;28;20040;-51
2022/09/10 00:44:38;;;;;;;48.78;10.60;;;;;;;20.09;61.08;99814.50;5034069;28;20164;-50
2022/09/10 00:47:32;;;;;;;40.08;9.77;;;;;;;20.07;61.70;99813.19;5034578;28;20036;-49
2022/09/10 00:50:13;;;;;;;50.33;10.93;;;;;;;19.93;61.42;99816.66;5033879;28;20021;-48
2022/09/10 00:52:40;;;;;;;50.47;10.48;;;;;;;20.15;61.25;99818.75;5033977;28;20502;-49
2022/09/10 00:55:07;;;;;;;42.33;10.45;;;;;;;19.92;61.63;99816.94;5033795;28;20025;-49
2022/09/10 00:57:33;;;;;;;46.30;9.75;;;;;;;19.82;62.35;99817.88;5034063;28;20021;-51
2022/09/10 01:00:08;;;;;;;45.90;11.52;;;;;;;19.68;62.35;99823.22;5033548;28;20227;-49
2022/09/10 01:02:34;;;;;;;;;;;;;;;19.66;63.00;99827.34;5033963;28;20032;-52
2022/09/10 01:05:02;;;;;;;45.38;9.88;;;;;;;19.91;62.13;99823.47;5033972;28;20051;-49
2022/09/10 01:07:30;;;;;;;38.55;10.95;;;;;;;19.51;63.24;99829.09;5033977;28;20172;-52
2022/09/10 01:09:58;;;;;;;40.05;10.43;;;;;;;19.57;62.98;99824.41;5051963;28;20036;-49
2022/09/10 01:12:42;;;;;;;49.20;11.60;;;;;;;19.63;63.00;99831.44;5053404;28;20139;-50
2022/09/10 01:15:26;;;;;;;39.58;10.57;;;;;;;19.40;63.67;99826.78;5053660;28;20036;-52
2022/09/10 01:18:21;;;;;;;45.17;10.30;;;;;;;19.28;63.83;99820.97;5053596;28;20060;-51
2022/09/10 01:20:59;;;;;;;40.27;9.93;;;;;;;19.35;63.73;99821.41;5053431;28;20558;-52
2022/09/10 01:23:47;;;;;;;39.97;10.60;;;;;;;19.21;64.03;99819.41;5053811;28;20262;-53
2022/09/10 01:26:48;;;;;;;36.95;10.52;;;;;;;19.05;64.94;99812.53;5053416;28;20035;-50
2022/09/10 01:29:27;;;;;;;36.75;10.68;;;;;;;19.06;64.71;99822.28;5053575;28;20033;-50
2022/09/10 01:32:02;;;;;;;53.55;11.65;;;;;;;19.09;64.61;99824.41;5047238;28;20483;-54
2022/09/10 01:34:40;;;;;;;49.20;10.40;;;;;;;19.11;65.22;99816.00;5049993;28;20099;-52
2022/09/10 01:37:13;;;;;;;42.10;10.88;;;;;;;18.99;65.29;99819.09;5049930;28;20045;-50
2022/09/10 01:39:41;;;;;;;43.70;11.52;;;;;;;18.99;65.67;99828.03;5038080;28;20108;-48
2022/09/10 01:42:07;;;;;;;42.97;11.05;;;;;;;18.87;65.79;99832.22;5044439;28;20053;-51
2022/09/10 01:44:51;;;;;;;41.92;10.48;;;;;;;18.92;65.51;99829.44;5050073;28;20033;-50
2022/09/10 01:47:51;;;;;;;43.28;10.35;;;;;;;18.89;65.92;99830.03;5037696;28;20065;-49
2022/09/10 01:50:49;;;;;;;38.90;10.48;;;;;;;18.81;66.37;99834.16;5032939;28;20148;-52
2022/09/10 01:53:39;;;;;;;45.20;11.60;;;;;;;18.81;66.51;99836.06;5038028;28;20029;-49
2022/09/10 01:56:35;;;;;;;42.10;11.25;;;;;;;18.54;67.19;99837.34;5037351;28;20049;-49
2022/09/10 01:59:24;;;;;;;56.30;11.45;;;;;;;18.52;67.67;99839.53;5050802;28;20040;-49
2022/09/10 02:01:58;;;;;;;45.50;10.38;;;;;;;18.21;68.83;99852.47;5052570;28;20029;-49
2022/09/10 02:04:27;;;;;;;41.88;10.88;;;;;;;18.17;69.43;99852.22;5052006;28;20029;-48
2022/09/10 02:06:55;;;;;;;48.85;11.73;;;;;;;18.07;70.02;99857.72;5052819;28;20049;-48
2022/09/10 02:09:22;;;;;;;43.80;11.48;;;;;;;18.09;70.01;99860.94;5046262;28;20037;-51
2022/09/10 02:11:51;;;;;;;49.92;11.73;;;;;;;18.06;70.40;99864.22;5037416;28;20036;-51
2022/09/10 02:14:20;;;;;;;46.83;10.52;;;;;;;18.06;70.95;99875.03;5032181;28;20053;-48
2022/09/10 02:16:59;;;;;;;55.63;11.85;;;;;;;17.98;71.25;99875.63;5048760;28;20111;-53
2022/09/10 02:19:27;;;;;;;47.35;12.77;;;;;;;17.82;71.90;99883.03;5050865;28;20048;-49
2022/09/10 02:21:56;;;;;;;50.67;11.40;;;;;;;17.72;72.76;99882.22;5052618;28;20593;-49
2022/09/10 02:24:26;;;;;;;50.22;12.18;;;;;;;17.78;72.62;99886.56;5045382;28;20146;-50
2022/09/10 02:26:53;;;;;;;48.10;11.95;;;;;;;17.60;73.73;99880.63;5052504;28;20017;-50
2022/09/10 02:29:20;;;;;;;54.35;13.25;;;;;;;17.57;74.43;99880.38;5047652;28;20036;-50
2022/09/10 02:31:47;;;;;;;49.17;11.40;;;;;;;17.53;74.50;99871.97;5052502;28;20040;-49
2022/09/10 02:34:14;;;;;;;55.17;13.48;;;;;;;17.53;74.92;99890.09;5050585;28;20043;-50
2022/09/10 02:36:41;;;;;;;56.45;12.60;;;;;;;17.36;75.66;99898.53;5052087;28;20056;-49
2022/09/10 02:39:07;;;;;;;57.63;12.43;;;;;;;17.32;76.19;99908.28;5049794;28;20050;-49
2022/09/10 02:41:34;;;;;;;54.30;11.90;;;;;;;17.28;76.45;99920.75;5036824;28;20032;-48
2022/09/10 02:44:01;;;;;;;51.67;11.73;;;;;;;17.17;76.60;99919.13;5037542;28;20052;-50
2022/09/10 02:46:28;;;;;;;49.78;14.05;;;;;;;17.32;76.63;99924.50;5053648;28;20017;-49
2022/09/10 02:48:55;;;;;;;58.08;13.63;;;;;;;17.17;76.87;99921.84;5051641;28;20078;-50
2022/09/10 02:51:22;;;;;;;52.92;13.02;;;;;;;17.05;78.13;99922.13;5051576;28;20108;-51
2022/09/10 02:53:49;;;;;;;50.95;13.40;;;;;;;16.90;78.62;99931.03;5051097;28;20056;-50
2022/09/10 02:56:19;;;;;;;63.38;13.60;;;;;;;17.01;78.12;99935.34;5052070;28;20025;-55
2022/09/10 02:58:51;;;;;;;58.60;12.93;;;;;;;16.86;78.71;99935.34;5051460;28;20025;-52
2022/09/10 03:01:21;;;;;;;50.40;12.80;;;;;;;16.91;78.29;99934.53;5032909;28;20036;-51
2022/09/10 03:03:50;;;;;;;57.67;13.50;;;;;;;16.83;78.67;99941.31;5032369;28;20040;-49
2022/09/10 03:06:17;;;;;;;59.15;12.20;;;;;;;16.88;78.54;99935.91;5031757;28;20025;-50
2022/09/10 03:08:44;;;;;;;52.38;12.15;;;;;;;16.96;78.13;99948.06;5044666;28;20532;-48
2022/09/10 03:11:15;;;;;;;45.78;11.27;;;;;;;16.98;78.19;99951.28;5039035;28;20084;-51
2022/09/10 03:13:45;;;;;;;57.17;12.10;;;;;;;16.90;78.15;99952.66;5032090;28;20064;-49
2022/09/10 03:16:15;;;;;;;57.58;12.05;;;;;;;16.91;78.19;99956.97;5050750;28;20033;-48
2022/09/10 03:18:42;;;;;;;45.17;11.88;;;;;;;16.87;78.21;99974.78;5051838;28;20078;-48
2022/09/10 03:21:13;;;;;;;52.53;11.88;;;;;;;16.87;78.51;99980.19;5050021;28;20063;-47
2022/09/10 03:23:41;;;;;;;44.55;11.45;;;;;;;16.94;77.82;99977.25;5047744;28;20045;-48
2022/09/10 03:26:09;;;;;;;40.70;10.88;;;;;;;16.87;78.23;99996.41;5035840;28;20029;-49
2022/09/10 03:28:36;;;;;;;64.78;12.20;;;;;;;16.85;78.44;99996.69;5038654;28;20801;-51
2022/09/10 03:31:04;;;;;;;43.15;12.05;;;;;;;16.73;78.69;100006.13;5051677;28;20025;-52
2022/09/10 03:33:30;;;;;;;48.13;11.85;;;;;;;16.67;78.95;100013.38;5054783;28;20029;-51
2022/09/10 03:35:58;;;;;;;53.28;12.82;;;;;;;16.81;78.78;100016.41;5054045;28;20048;-49
2022/09/10 03:38:26;;;;;;;46.42;10.88;;;;;;;16.84;78.39;100021.28;5053751;28;20560;-50
2022/09/10 03:40:53;;;;;;;52.15;13.15;;;;;;;16.88;78.32;100023.22;5051705;28;20115;-53
2022/09/10 03:43:21;;;;;;;57.67;11.95;;;;;;;16.75;78.94;100034.50;5054644;28;20087;-52
2022/09/10 03:45:50;;;;;;;53.42;12.07;;;;;;;16.87;78.16;100043.19;5053636;28;20215;-50
2022/09/10 03:48:19;;;;;;;60.33;11.60;;;;;;;16.84;78.54;100045.63;5035534;28;20428;-48
2022/09/10 03:50:46;;;;;;;42.70;11.57;;;;;;;16.85;78.78;100048.06;5054210;28;20036;-50
2022/09/10 03:53:14;;;;;;;53.42;12.20;;;;;;;16.79;78.72;100059.13;5054300;28;20036;-50
2022/09/10 03:55:45;;;;;;;52.17;12.20;;;;;;;16.77;78.79;100059.41;5041135;28;20037;-51
2022/09/10 03:58:12;;;;;;;43.53;11.50;;;;;;;16.81;78.73;100065.06;5035275;28;20033;-51
2022/09/10 04:00:39;;;;;;;53.80;12.73;;;;;;;16.92;78.52;100072.13;5054776;28;20035;-50
2022/09/10 04:03:05;;;;;;;66.30;12.15;;;;;;;16.85;78.88;100071.56;5055212;28;20017;-50
2022/09/10 04:05:32;;;;;;;51.92;13.02;;;;;;;16.86;78.72;100076.69;5051275;28;20472;-50
2022/09/10 04:07:59;;;;;;;57.65;11.57;;;;;;;16.87;78.26;100074.81;5047318;28;20033;-51
2022/09/10 04:10:26;;;;;;;49.30;13.02;;;;;;;16.82;78.92;100078.34;5050163;28;20063;-49
2022/09/10 04:12:53;;;;;;;46.42;11.48;;;;;;;16.84;78.53;100083.47;5038994;28;20053;-53
2022/09/10 04:15:25;;;;;;;52.08;13.43;;;;;;;16.70;79.21;100082.28;5033735;28;20398;-51
2022/09/10 04:17:51;;;;;;;52.58;13.10;;;;;;;16.56;80.11;100084.69;5049369;28;20391;-51
2022/09/10 04:20:21;;;;;;;44.17;12.75;;;;;;;16.65;79.58;100088.47;5054462;28;20037;-52
2022/09/10 04:22:50;;;;;;;57.80;14.40;;;;;;;16.81;79.17;100089.38;5041362;28;20034;-52
2022/09/10 04:25:17;;;;;;;49.40;13.20;;;;;;;16.63;79.68;100080.66;5033593;28;20053;-50
2022/09/10 04:27:44;;;;;;;58.83;12.73;;;;;;;16.61;80.12;100093.63;5046164;28;20052;-49
2022/09/10 04:30:12;;;;;;;52.97;11.68;;;;;;;16.49;80.99;100093.03;5054706;28;20033;-50
2022/09/10 04:32:38;;;;;;;50.35;12.23;;;;;;;16.58;80.48;100096.03;5042511;28;20104;-51
2022/09/10 04:35:05;;;;;;;50.33;11.80;;;;;;;16.58;80.50;100096.03;5033989;28;20033;-50
2022/09/10 04:37:33;;;;;;;47.25;11.30;;;;;;;16.74;79.65;100096.94;5034318;28;20045;-48
2022/09/10 04:40:00;;;;;;;48.60;13.38;;;;;;;16.72;79.81;100104.50;5034612;28;20057;-52
2022/09/10 04:42:27;;;;;;;48.25;11.45;;;;;;;16.58;80.57;100109.53;5035503;28;20017;-50
2022/09/10 04:44:59;;;;;;;54.90;12.05;;;;;;;16.47;80.91;100105.16;5054464;28;20471;-48
2022/09/10 04:47:25;;;;;;;54.67;11.98;;;;;;;16.52;81.04;100105.19;5049909;28;20037;-47
2022/09/10 04:49:52;;;;;;;48.25;13.00;;;;;;;16.59;80.98;100121.97;5054599;28;20031;-49
2022/09/10 04:52:21;;;;;;;46.50;11.07;;;;;;;16.49;81.08;100125.44;5051058;28;20025;-50
2022/09/10 04:54:48;;;;;;;46.58;11.82;;;;;;;16.55;80.64;100137.91;5054401;28;20021;-52
2022/09/10 04:57:15;;;;;;;50.85;10.63;;;;;;;16.53;80.28;100145.44;5051530;28;20108;-51
2022/09/10 04:59:41;;;;;;;53.25;11.40;;;;;;;16.47;80.85;100149.19;5054238;28;20028;-49
2022/09/10 05:02:11;;;;;;;62.20;12.35;;;;;;;16.51;80.79;100142.19;5052788;28;20095;-49
2022/09/10 05:04:38;;;;;;;60.90;12.93;;;;;;;16.36;81.41;100152.91;5038112;28;20029;-51
2022/09/10 05:07:05;;;;;;;46.08;11.43;;;;;;;16.33;81.50;100151.56;5034428;28;20036;-50
2022/09/10 05:09:32;;;;;;;66.18;12.15;;;;;;;16.34;81.79;100153.19;5047394;28;20029;-51
2022/09/10 05:11:59;;;;;;;72.95;12.90;;;;;;;16.30;82.40;100159.34;5043206;28;20112;-48
2022/09/10 05:14:28;;;;;;;57.38;12.80;;;;;;;16.34;82.03;100168.56;5033910;28;20468;-52
2022/09/10 05:16:55;;;;;;;50.65;12.20;;;;;;;16.37;82.01;100165.31;5040374;28;20043;-50
2022/09/10 05:19:21;;;;;;;53.92;12.27;;;;;;;16.41;82.16;100169.16;5053801;28;20090;-51
2022/09/10 05:21:47;;;;;;;56.92;11.75;;;;;;;16.52;81.75;100176.22;5046422;28;20103;-51
2022/09/10 05:24:15;;;;;;;50.30;11.20;;;;;;;16.49;81.45;100170.53;5033953;28;20028;-49
2022/09/10 05:26:42;;;;;;;64.55;13.38;;;;;;;16.45;81.86;100177.56;5034787;28;20034;-49
2022/09/10 05:29:10;;;;;;;52.55;12.20;;;;;;;16.48;81.64;100183.22;5033537;28;20028;-50
2022/09/10 05:31:36;;;;;;;53.90;12.10;;;;;;;16.47;81.35;100181.59;5036345;28;20052;-48
2022/09/10 05:34:03;;;;;;;58.10;12.15;;;;;;;16.50;81.22;100180.28;5034574;28;20115;-48
2022/09/10 05:36:30;;;;;;;46.20;12.05;;;;;;;16.39;81.63;100176.72;5035835;28;20029;-49
2022/09/10 05:39:02;;;;;;;44.45;11.30;;;;;;;16.50;81.23;100177.59;5053415;28;20032;-50
2022/09/10 05:41:29;;;;;;;43.63;11.48;;;;;;;16.46;81.04;100182.69;5052343;28;20731;-51
2022/09/10 05:43:56;;;;;;;42.78;10.95;;;;;;;16.55;81.01;100191.94;5049924;28;20032;-51
2022/09/10 05:46:23;;;;;;;46.58;11.30;;;;;;;16.50;80.77;100197.31;5051033;28;20021;-51
2022/09/10 05:48:49;;;;;;;40.80;10.48;;;;;;;16.52;80.96;100197.03;5033183;28;20463;-49
2022/09/10 05:51:17;;;;;;;44.03;11.80;;;;;;;16.55;81.01;100191.94;5031073;28;20029;-51
2022/09/10 05:53:43;;;;;;;45.75;10.82;;;;;;;16.56;80.91;100195.44;5033745;28;20071;-51
2022/09/10 05:56:09;;;;;;;40.33;10.98;;;;;;;16.51;80.74;100198.94;5033226;28;20036;-51
2022/09/10 05:58:36;;;;;;;48.08;10.90;;;;;;;16.39;81.40;100198.31;5049064;28;20040;-48
2022/09/10 06:01:02;;;;;;;52.95;10.95;;;;;;;16.40;81.40;100199.94;5052635;28;20459;-52
2022/09/10 06:03:29;;;;;;;55.30;12.40;;;;;;;16.55;81.31;100207.34;5040533;28;20491;-50
2022/09/10 06:05:55;;;;;;;52.60;12.55;;;;;;;16.56;81.24;100209.78;5032985;28;20029;-47
2022/09/10 06:08:22;;;;;;;46.10;11.10;;;;;;;16.43;80.98;100210.19;5033347;28;20029;-50
2022/09/10 06:11:03;;;;;;;38.65;10.05;;;;;;;16.45;81.38;100210.78;5032622;28;20033;-49
2022/09/10 06:13:31;;;;;;;48.47;12.50;;;;;;;16.37;81.54;100212.06;5046139;28;20037;-51
2022/09/10 06:15:58;;;;;;;42.15;10.48;;;;;;;16.41;81.42;100225.06;5052510;28;20025;-52
2022/09/10 06:18:24;;;;;;;50.30;11.90;;;;;;;16.19;82.47;100217.06;5037556;28;20468;-51
2022/09/10 06:21:01;;;;;;;44.45;11.15;;;;;;;16.18;82.71;100227.03;5030966;28;20026;-52
2022/09/10 06:23:30;;;;;;;47.90;11.18;;;;;;;16.33;82.08;100229.06;5033403;28;20036;-52
2022/09/10 06:26:08;;;;;;;54.53;11.60;;;;;;;16.29;82.42;100238.75;5032531;28;20079;-51
2022/09/10 06:28:35;;;;;;;52.60;11.65;;;;;;;16.26;82.05;100236.53;5041236;28;20368;-50
2022/09/10 06:31:05;;;;;;;49.75;11.70;;;;;;;16.26;82.64;100244.66;5052176;28;20021;-53
2022/09/10 06:33:32;;;;;;;42.95;11.93;;;;;;;16.15;83.01;100243.75;5037792;28;20048;-51
2022/09/10 06:36:00;;;;;;;52.22;11.77;;;;;;;16.10;83.16;100238.31;5032396;28;20530;-49
2022/09/10 06:38:39;;;;;;;47.00;12.05;;;;;;;16.23;82.37;100226.28;5032121;28;20099;-51
2022/09/10 06:41:10;;;;;;;46.78;12.13;;;;;;;16.26;82.33;100223.03;5049238;28;20036;-49
2022/09/10 06:43:43;;;;;;;48.35;12.23;;;;;;;16.29;82.50;100227.94;5033993;28;20038;-51
2022/09/10 06:46:16;;;;;;;46.78;12.00;;;;;;;16.07;83.16;100236.13;5031662;28;20021;-52
2022/09/10 06:48:45;;;;;;;67.97;12.52;;;;;;;16.20;82.83;100237.59;5051884;28;20128;-51
2022/09/10 06:51:15;;;;;;;46.55;11.85;;;;;;;16.19;82.73;100238.66;5050530;28;20032;-51
2022/09/10 06:53:45;;;;;;;51.05;12.07;;;;;;;16.12;83.29;100240.78;5032453;28;20442;-52
2022/09/10 06:56:14;;;;;;;52.67;12.57;;;;;;;16.02;83.61;100247.69;5031942;28;20022;-52
2022/09/10 06:58:46;;;;;;;59.33;12.85;;;;;;;16.08;83.24;100233.16;5017008;28;20131;-53
2022/09/10 07:01:16;;;;;;;57.17;12.48;;;;;;;16.18;82.80;100212.72;5050547;28;20021;-51
2022/09/10 07:03:43;;;;;;;54.80;12.18;;;;;;;16.18;82.65;100210.03;5032363;28;20072;-50
2022/09/10 07:06:12;;;;;;;59.10;12.38;;;;;;;16.18;82.77;100215.44;5031908;28;20049;-51
2022/09/10 07:08:47;;;;;;;41.85;11.02;;;;;;;16.22;83.16;100230.88;5032558;28;20040;-51
2022/09/10 07:11:15;;;;;;;63.55;12.82;;;;;;;16.14;83.24;100254.81;5031638;28;20026;-50
2022/09/10 07:13:42;;;;;;;65.47;13.48;;;;;;;16.13;83.46;100258.59;5033507;28;20036;-52
2022/09/10 07:16:09;;;;;;;53.20;12.27;;;;;;;16.21;82.91;100266.22;5048604;28;20043;-49
2022/09/10 07:18:35;;;;;;;51.70;13.38;;;;;;;16.06;83.95;100259.63;5048866;28;20029;-50
2022/09/10 07:21:14;;;;;;;43.25;12.05;;;;;;;16.09;83.64;100271.78;5050527;28;20044;-50
2022/09/10 07:23:40;;;;;;;53.45;11.77;;;;;;;16.04;84.18;100274.44;5033468;28;20152;-53
2022/09/10 07:26:10;;;;;;;60.65;12.90;;;;;;;15.90;85.00;100281.31;5031688;28;20018;-50
2022/09/10 07:28:43;;;;;;;53.67;12.27;;;;;;;15.87;84.87;100274.53;5032906;28;20037;-52
2022/09/10 07:31:14;;;;;;;55.72;13.18;;;;;;;15.86;85.65;100278.31;5033535;28;20390;-52
2022/09/10 07:33:46;;;;;;;57.47;12.02;;;;;;;15.90;85.79;100292.94;5049508;28;20044;-53
2022/09/10 07:36:15;;;;;;;57.42;12.65;;;;;;;16.04;85.11;100286.03;5049312;28;20032;-52
2022/09/10 07:38:42;;;;;;;50.35;12.82;;;;;;;16.06;84.86;100275.81;5051670;28;20040;-50
2022/09/10 07:41:14;;;;;;;66.80;15.35;;;;;;;16.09;84.64;100277.19;5031322;28;20049;-53
2022/09/10 07:43:52;;;;;;;54.65;12.07;;;;;;;16.02;84.62;100290.88;5034571;28;20036;-50
2022/09/10 07:46:19;;;;;;;48.10;12.70;;;;;;;15.92;84.83;100284.56;5033307;28;21481;-51
2022/09/10 07:48:50;;;;;;;51.08;11.75;;;;;;;15.79;85.07;100299.28;5032211;28;20029;-52
2022/09/10 07:51:19;;;;;;;49.22;12.20;;;;;;;15.88;84.50;100292.38;5031774;28;20030;-48
2022/09/10 07:53:46;;;;;;;55.30;11.18;;;;;;;15.95;83.99;100300.28;5031984;28;20037;-50
2022/09/10 07:56:12;;;;;;;50.50;11.07;;;;;;;15.99;83.92;100298.66;5032289;28;20025;-48
2022/09/10 07:58:39;;;;;;;43.85;11.52;;;;;;;15.96;84.15;100301.91;5048831;28;20041;-49
2022/09/10 08:01:13;;;;;;;37.30;11.10;;;;;;;15.85;84.67;100290.19;5049111;28;20559;-48
2022/09/10 08:03:40;;;;;;;49.28;12.10;;;;;;;15.87;84.44;100279.13;5051104;28;20033;-49
2022/09/10 08:06:07;;;;;;;47.20;11.65;;;;;;;15.86;84.60;100294.50;5049719;28;20029;-48
2022/09/10 08:08:36;;;;;;;56.25;13.02;;;;;;;15.92;84.51;100298.88;5050791;28;20068;-48
2022/09/10 08:11:18;;;;;;;49.55;12.52;;;;;;;15.88;84.86;100310.44;5052169;28;20553;-48
2022/09/10 08:13:52;;;;;;;50.90;13.23;;;;;;;15.87;84.96;100322.31;5052724;28;20037;-48
2022/09/10 08:16:25;;;;;;;48.15;14.02;;;;;;;15.96;84.05;100318.91;5036498;28;20034;-50
2022/09/10 08:18:59;;;;;;;50.70;13.50;;;;;;;15.93;83.84;100318.59;5035207;28;20483;-49
2022/09/10 08:21:31;;;;;;;46.20;13.13;;;;;;;15.83;84.31;100311.22;5034063;28;20037;-49
2022/09/10 08:23:58;;;;;;;63.38;13.93;;;;;;;15.88;84.02;100310.44;5035639;28;20083;-50
2022/09/10 08:26:30;;;;;;;68.18;13.82;;;;;;;15.79;84.12;100320.88;5053831;28;20025;-50
2022/09/10 08:28:57;;;;;;;49.72;13.00;;;;;;;15.82;83.84;100305.00;5053648;28;20033;-49
2022/09/10 08:31:25;;;;;;;57.83;14.27;;;;;;;15.86;83.86;100299.09;5033647;28;20029;-49
2022/09/10 08:33:55;;;;;;;48.53;11.15;;;;;;;15.99;83.07;100307.59;5034025;28;20373;-48
2022/09/10 08:36:23;;;;;;;43.30;12.80;;;;;;;15.97;83.55;100312.44;5052981;28;20040;-49
2022/09/10 08:38:55;;;;;;;48.83;12.00;;;;;;;15.93;83.53;100314.00;5054645;28;20732;-50
2022/09/10 08:41:31;;;;;;;62.97;13.13;;;;;;;16.08;82.35;100329.53;5034729;28;20033;-49
2022/09/10 08:44:03;;;;;;;49.38;11.70;;;;;;;16.05;82.39;100333.59;5034698;28;20037;-48
2022/09/10 08:46:41;;;;;;;52.53;13.13;;;;;;;15.83;83.11;100330.09;5053220;28;20111;-47
2022/09/10 08:49:16;;;;;;;50.33;11.93;;;;;;;15.88;83.29;100340.13;5053223;28;20041;-48
2022/09/10 08:51:56;;;;;;;39.92;11.65;;;;;;;16.00;83.18;100335.41;5054017;28;20037;-48
2022/09/10 08:54:51;;;;;;;48.05;12.80;;;;;;;16.07;82.63;100336.03;5052576;28;20025;-48
2022/09/10 08:57:36;;;;;;;44.88;11.90;;;;;;;16.14;81.93;100331.22;5034307;28;20075;-49
2022/09/10 09:00:06;;;;;;;45.85;11.63;;;;;;;16.19;82.05;100331.28;5037165;28;20108;-48
2022/09/10 09:02:50;;;;;;;45.30;11.80;;;;;;;16.31;81.75;100334.63;5034279;28;20064;-48
2022/09/10 09:05:21;;;;;;;49.13;12.43;;;;;;;16.24;81.33;100333.22;5034479;28;20037;-50
2022/09/10 09:07:49;;;;;;;51.30;11.75;;;;;;;16.18;81.58;100334.25;5048655;28;20380;-48
2022/09/10 09:10:46;;;;;;;41.28;11.77;;;;;;;16.34;81.30;100349.53;5045879;28;20090;-48
2022/09/10 09:13:49;;;;;;;47.95;12.13;;;;;;;16.27;81.81;100363.25;5028051;28;20510;-49
2022/09/10 09:16:28;;;;;;;47.97;11.35;;;;;;;16.27;82.02;100367.81;4972883;28;20058;-49
2022/09/10 09:19:13;;;;;;;49.42;11.70;;;;;;;16.36;82.02;100364.38;5016155;28;20029;-50
2022/09/10 09:21:41;;;;;;;49.05;12.40;;;;;;;16.45;81.28;100366.63;5030307;28;20029;-47
2022/09/10 09:24:57;;;;;;;42.58;11.35;;;;;;;16.54;80.97;100365.88;5024610;28;20061;-48
2022/09/10 09:27:30;;;;;;;42.17;11.20;;;;;;;16.59;80.85;100363.22;4986473;28;20036;-48
2022/09/10 09:30:18;;;;;;;47.65;11.50;;;;;;;16.58;80.94;100368.91;5023275;28;20467;-48
2022/09/10 09:32:46;;;;;;;42.80;11.32;;;;;;;16.69;79.92;100367.91;5031008;28;20045;-48
2022/09/10 09:35:18;;;;;;;40.22;10.65;;;;;;;16.67;79.77;100375.47;5029199;28;20029;-48
2022/09/10 09:37:49;;;;;;;43.85;10.77;;;;;;;16.58;80.25;100372.41;5030603;28;20421;-48
2022/09/10 09:40:34;;;;;;;48.80;12.02;;;;;;;16.69;79.87;100369.81;5016450;28;20045;-48
2022/09/10 09:43:08;;;;;;;40.50;10.45;;;;;;;16.70;80.03;100368.72;5010878;28;20032;-50
2022/09/10 09:45:37;;;;;;;37.28;11.43;;;;;;;16.82;79.47;100372.09;5037315;28;20038;-48
2022/09/10 09:48:11;;;;;;;36.08;10.70;;;;;;;16.79;78.95;100367.22;5033059;28;20392;-50
2022/09/10 09:50:41;;;;;;;49.63;11.02;;;;;;;16.85;78.82;100372.41;5032892;28;20419;-49
2022/09/10 09:53:16;;;;;;;38.53;10.43;;;;;;;16.92;78.53;100371.38;5032562;28;20025;-50
2022/09/10 09:55:43;;;;;;;;;;;;;;;17.02;78.61;100363.34;5042045;28;20121;-48
2022/09/10 09:58:25;;;;;;;39.83;11.60;;;;;;;16.81;79.44;100363.16;5049531;28;20538;-51
2022/09/10 10:01:05;;;;;;;50.05;12.50;;;;;;;16.45;81.33;100372.84;5032787;28;20695;-48
2022/09/10 10:03:49;;;;;;;50.92;12.43;;;;;;;16.67;81.44;100390.88;5035416;28;20053;-48
2022/09/10 10:06:16;;;;;;;56.42;13.13;;;;;;;16.75;80.40;100387.72;5050172;28;20025;-47
2022/09/10 10:08:50;;;;;;;50.90;11.90;;;;;;;16.73;80.24;100387.19;5035925;28;20104;-48
2022/09/10 10:11:20;;;;;;;47.15;12.15;;;;;;;16.70;80.22;100390.34;5051621;28;20387;-47
2022/09/10 10:13:51;;;;;;;47.65;11.27;;;;;;;16.70;80.38;100403.84;5045579;28;20059;-47
2022/09/10 10:16:33;;;;;;;51.00;11.57;;;;;;;16.72;80.11;100410.69;5033247;28;20044;-49
2022/09/10 10:19:00;;;;;;;40.30;10.48;;;;;;;16.78;80.01;100404.25;5047407;28;20478;-48
2022/09/10 10:21:31;;;;;;;42.80;11.00;;;;;;;16.64;80.48;100398.41;5051273;28;20096;-48
2022/09/10 10:23:59;;;;;;;46.70;12.07;;;;;;;16.61;80.88;100408.94;5052327;28;20028;-48
2022/09/10 10:26:34;;;;;;;48.53;12.15;;;;;;;16.71;80.18;100417.16;5047848;28;20479;-48
2022/09/10 10:29:05;;;;;;;45.60;10.63;;;;;;;16.75;80.25;100417.44;5035472;28;20037;-48
2022/09/10 10:31:39;;;;;;;42.47;11.65;;;;;;;16.79;79.87;100421.28;5034342;28;20505;-48
2022/09/10 10:34:14;;;;;;;43.95;11.50;;;;;;;16.88;79.49;100419.75;5051744;28;20025;-49
2022/09/10 10:37:04;;;;;;;45.15;11.70;;;;;;;16.83;79.25;100430.50;5046642;28;20104;-48
2022/09/10 10:39:39;;;;;;;38.50;10.35;;;;;;;16.92;79.19;100442.47;5043461;28;20036;-48
2022/09/10 10:42:12;;;;;;;44.67;10.73;;;;;;;16.84;80.00;100442.94;5036863;28;20411;-48
2022/09/10 10:45:07;;;;;;;36.40;9.55;;;;;;;16.87;79.63;100431.59;5043724;28;20076;-48
2022/09/10 10:47:38;;;;;;;43.83;10.20;;;;;;;16.75;80.26;100441.78;5031716;28;20095;-48
2022/09/10 10:50:35;;;;;;;37.10;10.50;;;;;;;16.97;79.91;100453.31;5031498;28;20029;-48
2022/09/10 10:53:04;;;;;;;33.33;9.45;;;;;;;16.84;80.24;100445.66;5032282;28;20116;-47
2022/09/10 10:55:49;;;;;;;37.85;10.85;;;;;;;16.91;79.75;100446.25;5032133;28;20025;-48
2022/09/10 10:58:38;;;;;;;38.30;9.90;;;;;;;16.90;79.44;100450.03;5047074;28;20060;-47
2022/09/10 11:01:21;;;;;;;42.60;10.43;;;;;;;16.98;79.32;100443.31;5050385;28;20052;-48
2022/09/10 11:03:56;;;;;;;35.63;9.57;;;;;;;16.88;79.42;100444.06;5032777;28;20033;-48
2022/09/10 11:06:26;;;;;;;33.80;10.40;;;;;;;16.85;79.54;100441.88;5033233;28;20074;-51
2022/09/10 11:09:00;;;;;;;30.98;9.40;;;;;;;16.88;79.66;100439.47;5031537;28;20044;-47
2022/09/10 11:12:06;;;;;;;34.83;10.43;;;;;;;16.83;79.52;100449.44;5032123;28;20022;-47
2022/09/10 11:14:44;;;;;;;31.13;9.38;;;;;;;16.84;79.76;100454.56;5031341;28;20029;-48
2022/09/10 11:17:50;;;;;;;40.25;9.32;;;;;;;16.86;79.69;100459.72;5031828;28;20064;-48
2022/09/10 11:20:23;;;;;;;36.08;10.25;;;;;;;16.91;78.66;100464.34;5029164;28;20040;-48
2022/09/10 11:23:11;;;;;;;39.90;10.52;;;;;;;16.94;78.51;100471.97;5037680;28;20127;-48
2022/09/10 11:26:01;;;;;;;33.28;8.13;;;;;;;16.95;78.70;100484.41;5033652;28;20057;-49
2022/09/10 11:28:42;;;;;;;32.67;9.32;;;;;;;16.83;79.12;100477.28;5051732;28;20098;-49
2022/09/10 11:31:17;;;;;;;39.13;9.85;;;;;;;16.87;78.97;100485.66;5044821;28;20109;-48
2022/09/10 11:34:02;;;;;;;43.92;10.43;;;;;;;17.11;78.33;100486.97;5043031;28;20029;-48